Aviation Digital Data Service (ADDS)

Output produced by METARs form (1215 UTC 22 March 2019)
found at http://www.aviationweather.gov/metar/data/
 
METAR text: GAMB 221200Z 36010KT CAVOK 36/08 Q1011
Conditions at: GAMB (MOPTI/BARBE (MIL, ML) observed 1200 UTC 22 March 2019
Temperature: 36.0°C (97°F)
Dewpoint: 8.0°C (46°F) [RH = 18%]
Pressure (altimeter): 29.85 inches Hg (1011.0 mb)
Winds: from the N (360 degrees) at 12 MPH (10 knots; 5.1 m/s)
Visibility: 6 or more miles (10+ km)
Ceiling: ceiling and visibility are OK
Clouds: unknown
Weather: no significant weather observed at this time

METAR text: GAMB 220900Z 02006KT CAVOK 31/06 Q1011
Conditions at: GAMB (MOPTI/BARBE (MIL, ML) observed 0900 UTC 22 March 2019
Temperature: 31.0°C (88°F)
Dewpoint: 6.0°C (43°F) [RH = 21%]
Pressure (altimeter): 29.85 inches Hg (1011.0 mb)
Winds: from the NNE (20 degrees) at 7 MPH (6 knots; 3.1 m/s)
Visibility: 6 or more miles (10+ km)
Ceiling: ceiling and visibility are OK
Clouds: unknown
Weather: no significant weather observed at this time

METAR text: GAMB 220600Z 00000KT CAVOK 27/05 Q1010
Conditions at: GAMB (MOPTI/BARBE (MIL, ML) observed 0600 UTC 22 March 2019
Temperature: 27.0°C (81°F)
Dewpoint: 5.0°C (41°F) [RH = 24%]
Pressure (altimeter): 29.82 inches Hg (1010.0 mb)
Winds: calm
Visibility: 6 or more miles (10+ km)
Ceiling: ceiling and visibility are OK
Clouds: unknown
Weather: no significant weather observed at this time

METAR text: GAMB 220300Z 36008KT CAVOK 29/05 Q1009
Conditions at: GAMB (MOPTI/BARBE (MIL, ML) observed 0300 UTC 22 March 2019
Temperature: 29.0°C (84°F)
Dewpoint: 5.0°C (41°F) [RH = 22%]
Pressure (altimeter): 29.79 inches Hg (1009.0 mb)
Winds: from the N (360 degrees) at 9 MPH (8 knots; 4.1 m/s)
Visibility: 6 or more miles (10+ km)
Ceiling: ceiling and visibility are OK
Clouds: unknown
Weather: no significant weather observed at this time

METAR text: GAMB 220000Z 00000KT CAVOK 30/09 Q1010
Conditions at: GAMB (MOPTI/BARBE (MIL, ML) observed 0000 UTC 22 March 2019
Temperature: 30.0°C (86°F)
Dewpoint: 9.0°C (48°F) [RH = 27%]
Pressure (altimeter): 29.82 inches Hg (1010.0 mb)
Winds: calm
Visibility: 6 or more miles (10+ km)
Ceiling: ceiling and visibility are OK
Clouds: unknown
Weather: no significant weather observed at this time

METAR text: GAMB 212100Z VRB02KT CAVOK 32/06 Q1009
Conditions at: GAMB (MOPTI/BARBE (MIL, ML) observed 2100 UTC 21 March 2019
Temperature: 32.0°C (90°F)
Dewpoint: 6.0°C (43°F) [RH = 20%]
Pressure (altimeter): 29.79 inches Hg (1009.0 mb)
Winds: variable direction winds at 2 MPH (2 knots; 1.0 m/s)
Visibility: 6 or more miles (10+ km)
Ceiling: ceiling and visibility are OK
Clouds: unknown
Weather: no significant weather observed at this time

METAR text: GAMB 211800Z 32008KT CAVOK 35/02 Q1008
Conditions at: GAMB (MOPTI/BARBE (MIL, ML) observed 1800 UTC 21 March 2019
Temperature: 35.0°C (95°F)
Dewpoint: 2.0°C (36°F) [RH = 13%]
Pressure (altimeter): 29.76 inches Hg (1008.0 mb)
Winds: from the NW (320 degrees) at 9 MPH (8 knots; 4.1 m/s)
Visibility: 6 or more miles (10+ km)
Ceiling: ceiling and visibility are OK
Clouds: unknown
Weather: no significant weather observed at this time

METAR text: GAMB 211500Z 36006KT CAVOK 37/M02 Q1008
Conditions at: GAMB (MOPTI/BARBE (MIL, ML) observed 1500 UTC 21 March 2019
Temperature: 37.0°C (99°F)
Dewpoint: -2.0°C (28°F) [RH =  8%]
Pressure (altimeter): 29.76 inches Hg (1008.0 mb)
Winds: from the N (360 degrees) at 7 MPH (6 knots; 3.1 m/s)
Visibility: 6 or more miles (10+ km)
Ceiling: ceiling and visibility are OK
Clouds: unknown
Weather: no significant weather observed at this time

METAR text: GAMB 211200Z 32006KT 8000 NSC 34/09 Q1011
Conditions at: GAMB (MOPTI/BARBE (MIL, ML) observed 1200 UTC 21 March 2019
Temperature: 34.0°C (93°F)
Dewpoint: 9.0°C (48°F) [RH = 22%]
Pressure (altimeter): 29.85 inches Hg (1011.0 mb)
Winds: from the NW (320 degrees) at 7 MPH (6 knots; 3.1 m/s)
Visibility: 5 miles ( 8 km)
Ceiling: at least 12,000 feet AGL
Clouds: sky clear below 12,000 feet AGL
Weather: no significant weather observed at this time

METAR text: GAMB 210900Z 00000KT 7000 NSC 27/10 Q1011
Conditions at: GAMB (MOPTI/BARBE (MIL, ML) observed 0900 UTC 21 March 2019
Temperature: 27.0°C (81°F)
Dewpoint: 10.0°C (50°F) [RH = 34%]
Pressure (altimeter): 29.85 inches Hg (1011.0 mb)
Winds: calm
Visibility: 4 miles ( 7 km)
Ceiling: at least 12,000 feet AGL
Clouds: sky clear below 12,000 feet AGL
Weather: no significant weather observed at this time

METAR text: GAMB 210600Z 04006KT CAVOK 24/07 Q1009
Conditions at: GAMB (MOPTI/BARBE (MIL, ML) observed 0600 UTC 21 March 2019
Temperature: 24.0°C (75°F)
Dewpoint: 7.0°C (45°F) [RH = 34%]
Pressure (altimeter): 29.79 inches Hg (1009.0 mb)
Winds: from the NE (40 degrees) at 7 MPH (6 knots; 3.1 m/s)
Visibility: 6 or more miles (10+ km)
Ceiling: ceiling and visibility are OK
Clouds: unknown
Weather: no significant weather observed at this time

METAR text: GAMB 210300Z 04006KT CAVOK 28/M01 Q1009
Conditions at: GAMB (MOPTI/BARBE (MIL, ML) observed 0300 UTC 21 March 2019
Temperature: 28.0°C (82°F)
Dewpoint: -1.0°C (30°F) [RH = 15%]
Pressure (altimeter): 29.79 inches Hg (1009.0 mb)
Winds: from the NE (40 degrees) at 7 MPH (6 knots; 3.1 m/s)
Visibility: 6 or more miles (10+ km)
Ceiling: ceiling and visibility are OK
Clouds: unknown
Weather: no significant weather observed at this time